createdAt,value
2023-05-19T00:01:00.578Z,4.17
2023-05-19T00:03:27.337Z,4.37
2023-05-19T00:05:54.580Z,4.40
2023-05-19T00:08:24.582Z,4.00
2023-05-19T00:10:51.598Z,4.33
2023-05-19T00:13:18.311Z,3.83
2023-05-19T00:15:45.298Z,5.00
2023-05-19T00:18:14.012Z,4.00
2023-05-19T00:20:41.388Z,4.43
2023-05-19T00:23:08.297Z,4.10
2023-05-19T00:25:34.919Z,4.40
2023-05-19T00:28:02.439Z,4.20
2023-05-19T00:30:30.353Z,3.90
2023-05-19T00:32:57.148Z,4.50
2023-05-19T00:35:24.285Z,3.80
2023-05-19T00:37:50.820Z,5.07
2023-05-19T00:40:17.536Z,4.30
2023-05-19T00:42:44.018Z,4.47
2023-05-19T00:45:10.757Z,4.47
2023-05-19T00:47:37.215Z,4.33
2023-05-19T00:50:04.640Z,4.60
2023-05-19T00:52:31.230Z,4.27
2023-05-19T00:54:57.929Z,4.53
2023-05-19T00:57:25.948Z,4.73
2023-05-19T00:59:52.642Z,4.20
2023-05-19T01:02:19.453Z,4.70
2023-05-19T01:04:47.036Z,4.40
2023-05-19T01:07:15.535Z,4.63
2023-05-19T01:09:42.077Z,4.23
2023-05-19T01:12:08.981Z,4.83
2023-05-19T01:14:35.738Z,5.60
2023-05-19T01:17:27.682Z,4.60
2023-05-19T01:20:08.072Z,4.27
2023-05-19T01:23:16.654Z,4.30
2023-05-19T01:26:11.747Z,4.00
2023-05-19T01:29:12.424Z,4.50
2023-05-19T01:31:42.121Z,4.67
2023-05-19T01:34:12.016Z,4.70
2023-05-19T01:36:41.431Z,4.63
2023-05-19T01:39:08.056Z,4.63
2023-05-19T01:41:35.136Z,5.00
2023-05-19T01:44:02.290Z,4.33
2023-05-19T01:46:29.306Z,4.23
2023-05-19T01:48:56.193Z,5.03
2023-05-19T01:51:22.808Z,4.73
2023-05-19T01:53:49.299Z,4.80
2023-05-19T01:56:22.012Z,4.67
2023-05-19T01:58:58.373Z,4.20
2023-05-19T02:01:40.174Z,4.60
2023-05-19T02:04:27.305Z,4.30
2023-05-19T02:07:01.653Z,5.17
2023-05-19T02:09:56.096Z,5.23
2023-05-19T02:12:34.476Z,4.50
2023-05-19T02:15:11.232Z,4.13
2023-05-19T02:17:47.828Z,4.87
2023-05-19T02:20:15.517Z,4.47
2023-05-19T02:22:42.484Z,4.63
2023-05-19T02:25:09.603Z,4.70
2023-05-19T02:27:38.541Z,4.37
2023-05-19T02:30:06.078Z,4.23
2023-05-19T02:32:33.186Z,5.27
2023-05-19T02:35:00.146Z,5.40
2023-05-19T02:37:28.678Z,4.87
2023-05-19T02:39:55.760Z,5.10
2023-05-19T02:42:22.248Z,4.50
2023-05-19T02:44:49.032Z,5.10
2023-05-19T02:47:16.140Z,4.47
2023-05-19T02:49:44.064Z,4.33
2023-05-19T02:52:12.031Z,4.40
2023-05-19T02:54:38.758Z,4.57
2023-05-19T02:57:05.729Z,4.30
2023-05-19T02:59:32.249Z,4.30
2023-05-19T03:02:02.652Z,5.27
2023-05-19T03:04:30.013Z,4.50
2023-05-19T03:06:57.863Z,4.77
2023-05-19T03:09:24.648Z,4.80
2023-05-19T03:11:51.503Z,5.23
2023-05-19T03:14:18.573Z,4.50
2023-05-19T03:16:45.645Z,5.03
2023-05-19T03:19:12.486Z,5.20
2023-05-19T03:21:39.229Z,4.53
2023-05-19T03:24:06.598Z,4.73
2023-05-19T03:26:33.525Z,5.00
2023-05-19T03:29:00.047Z,4.93
2023-05-19T03:31:26.946Z,5.20
2023-05-19T03:33:53.696Z,5.80
2023-05-19T03:36:22.137Z,4.70
2023-05-19T03:38:48.729Z,5.37
2023-05-19T03:41:15.867Z,4.73
2023-05-19T03:43:42.499Z,5.57
2023-05-19T03:46:09.827Z,5.10
2023-05-19T03:48:55.165Z,5.50
2023-05-19T03:51:30.009Z,4.93
2023-05-19T03:54:04.384Z,6.10
2023-05-19T03:56:31.153Z,5.30
2023-05-19T03:58:57.632Z,5.83
2023-05-19T04:01:24.210Z,5.90
2023-05-19T04:03:50.797Z,5.60
2023-05-19T04:06:17.770Z,5.30
2023-05-19T04:08:44.415Z,5.37
2023-05-19T04:11:12.625Z,4.90
2023-05-19T04:13:39.108Z,4.97
2023-05-19T04:16:06.563Z,4.90
2023-05-19T04:18:33.113Z,6.03
2023-05-19T04:20:59.729Z,5.30
2023-05-19T04:23:26.375Z,6.10
2023-05-19T04:25:54.361Z,5.43
2023-05-19T04:28:21.565Z,5.33
2023-05-19T04:30:48.299Z,5.70
2023-05-19T04:33:15.175Z,5.63
2023-05-19T04:35:43.909Z,5.90
2023-05-19T04:38:12.056Z,5.30
2023-05-19T04:40:40.369Z,5.30
2023-05-19T04:43:09.372Z,4.80
2023-05-19T04:45:37.606Z,5.97
2023-05-19T04:48:05.112Z,5.07
2023-05-19T04:50:32.405Z,5.53
2023-05-19T04:52:59.928Z,5.17
2023-05-19T04:55:27.455Z,5.03
2023-05-19T04:57:53.940Z,6.27
2023-05-19T05:00:21.418Z,5.70
2023-05-19T05:02:58.777Z,5.40
2023-05-19T05:05:28.224Z,5.97
2023-05-19T05:07:55.026Z,5.50
2023-05-19T05:10:23.628Z,5.67
2023-05-19T05:12:50.693Z,5.60
2023-05-19T05:15:17.755Z,5.20
2023-05-19T05:17:48.400Z,5.47
2023-05-19T05:20:15.801Z,5.47
2023-05-19T05:22:42.567Z,7.20
2023-05-19T05:25:10.301Z,5.90
2023-05-19T05:27:37.544Z,6.50
2023-05-19T05:30:08.245Z,5.77
2023-05-19T05:32:34.989Z,5.90
2023-05-19T05:35:04.200Z,5.37
2023-05-19T05:37:31.391Z,5.53
2023-05-19T05:39:58.005Z,6.07
2023-05-19T05:42:24.900Z,4.97
2023-05-19T05:44:51.924Z,5.50
2023-05-19T05:47:18.846Z,6.07
2023-05-19T05:49:48.147Z,5.80
2023-05-19T05:52:15.775Z,5.70
2023-05-19T05:54:46.308Z,6.13
2023-05-19T05:57:15.783Z,5.53
2023-05-19T05:59:45.335Z,6.03
2023-05-19T06:02:11.993Z,5.83
2023-05-19T06:04:39.404Z,5.50
2023-05-19T06:07:06.358Z,5.53
2023-05-19T06:09:36.511Z,5.63
2023-05-19T06:12:06.469Z,5.30
2023-05-19T06:14:37.993Z,5.20
2023-05-19T06:17:14.012Z,5.07
2023-05-19T06:19:40.633Z,5.87
2023-05-19T06:22:07.515Z,4.80
2023-05-19T06:24:34.274Z,5.63
2023-05-19T06:27:01.014Z,5.80
2023-05-19T06:29:27.546Z,5.20
2023-05-19T06:31:57.021Z,5.57
2023-05-19T06:34:24.509Z,5.17
2023-05-19T06:36:51.190Z,6.20
2023-05-19T06:39:19.460Z,4.83
2023-05-19T06:41:45.950Z,5.87
2023-05-19T06:44:25.032Z,5.50
2023-05-19T06:46:51.668Z,5.40
2023-05-19T06:49:19.952Z,5.10
2023-05-19T06:51:47.788Z,4.77
2023-05-19T06:54:16.022Z,5.40
2023-05-19T06:56:42.815Z,6.30
2023-05-19T06:59:10.243Z,4.80
2023-05-19T07:01:37.873Z,5.83
2023-05-19T07:04:04.650Z,4.63
2023-05-19T07:06:31.478Z,5.40
2023-05-19T07:08:57.962Z,4.70
2023-05-19T07:11:25.175Z,4.53
2023-05-19T07:13:51.715Z,4.20
2023-05-19T07:16:24.396Z,4.60
2023-05-19T07:18:51.083Z,4.40
2023-05-19T07:21:17.691Z,3.53
2023-05-19T07:23:44.194Z,3.57
2023-05-19T07:26:11.753Z,3.63
2023-05-19T07:28:41.306Z,4.03
2023-05-19T07:31:08.388Z,4.23
2023-05-19T07:33:34.887Z,3.60
2023-05-19T07:36:01.605Z,3.93
2023-05-19T07:38:28.792Z,3.20
2023-05-19T07:40:55.468Z,3.00
2023-05-19T07:43:21.942Z,3.40
2023-05-19T07:45:48.627Z,3.93
2023-05-19T07:48:15.234Z,2.87
2023-05-19T07:50:41.894Z,3.40
2023-05-19T07:53:08.508Z,2.83
2023-05-19T07:55:35.273Z,2.53
2023-05-19T07:58:01.760Z,2.93
2023-05-19T08:00:28.605Z,3.20
2023-05-19T08:02:56.884Z,2.93
2023-05-19T08:05:23.927Z,2.60
2023-05-19T08:07:50.471Z,2.97
2023-05-19T08:10:17.282Z,2.90
2023-05-19T08:12:44.177Z,3.07
2023-05-19T08:15:11.789Z,3.57
2023-05-19T08:17:38.360Z,2.50
2023-05-19T08:20:08.074Z,3.10
2023-05-19T08:22:34.652Z,3.13
2023-05-19T08:25:01.574Z,2.77
2023-05-19T08:27:28.147Z,2.67
2023-05-19T08:29:55.338Z,3.10
2023-05-19T08:32:21.949Z,3.23
2023-05-19T08:34:48.579Z,3.50
2023-05-19T08:37:15.224Z,3.20
2023-05-19T08:39:42.293Z,3.20
2023-05-19T08:42:09.933Z,3.20
2023-05-19T08:44:37.773Z,3.10
2023-05-19T08:47:05.502Z,2.77
2023-05-19T08:49:42.833Z,2.73
2023-05-19T08:52:17.091Z,2.70
2023-05-19T08:54:50.846Z,2.93
2023-05-19T08:57:17.843Z,3.00
2023-05-19T08:59:44.569Z,3.07
2023-05-19T09:02:13.177Z,3.23
2023-05-19T09:04:40.220Z,2.87
2023-05-19T09:07:09.279Z,2.73
2023-05-19T09:09:35.756Z,2.10
2023-05-19T09:12:02.301Z,2.60
2023-05-19T09:14:29.461Z,2.47
2023-05-19T09:16:56.250Z,2.80
2023-05-19T09:19:22.915Z,2.30
2023-05-19T09:22:00.189Z,2.60
2023-05-19T09:24:27.134Z,2.57
2023-05-19T09:26:58.493Z,2.63
2023-05-19T09:29:26.426Z,2.50
2023-05-19T09:31:56.067Z,2.60
2023-05-19T09:34:24.794Z,3.47
2023-05-19T09:36:54.759Z,2.30
2023-05-19T09:39:23.824Z,2.60
2023-05-19T09:41:54.948Z,2.50
2023-05-19T09:44:24.600Z,2.80
2023-05-19T09:46:52.808Z,3.53
2023-05-19T09:49:21.235Z,2.90
2023-05-19T09:51:53.965Z,2.10
2023-05-19T09:54:23.033Z,2.30
2023-05-19T09:56:57.416Z,2.33
2023-05-19T09:59:25.302Z,2.33
2023-05-19T10:01:58.978Z,2.63
2023-05-19T10:04:29.930Z,2.30
2023-05-19T10:06:59.683Z,2.47
2023-05-19T10:09:27.998Z,2.53
2023-05-19T10:11:58.925Z,2.60
2023-05-19T10:14:27.913Z,2.70
2023-05-19T10:16:56.728Z,3.10
2023-05-19T10:19:27.657Z,2.93
2023-05-19T10:21:54.546Z,2.73
2023-05-19T10:24:21.642Z,2.60
2023-05-19T10:27:05.054Z,2.87
2023-05-19T10:29:36.415Z,2.47
2023-05-19T10:32:10.324Z,2.70
2023-05-19T10:34:50.402Z,2.10
2023-05-19T10:37:46.274Z,2.70
2023-05-19T10:40:28.426Z,2.87
2023-05-19T10:43:14.240Z,2.47
2023-05-19T10:45:49.268Z,2.60
2023-05-19T10:48:17.186Z,2.60
2023-05-19T10:50:45.893Z,3.13
2023-05-19T10:53:22.022Z,2.60
2023-05-19T10:55:59.068Z,2.73
2023-05-19T10:58:43.661Z,2.70
2023-05-19T11:01:15.206Z,3.20
2023-05-19T11:03:54.829Z,2.47
2023-05-19T11:06:27.294Z,2.70
2023-05-19T11:08:56.868Z,2.60
2023-05-19T11:11:23.698Z,2.90
2023-05-19T11:13:55.182Z,2.40
2023-05-19T11:16:29.784Z,2.50
2023-05-19T11:18:59.064Z,2.30
2023-05-19T11:21:41.585Z,2.30
2023-05-19T11:24:09.364Z,2.63
2023-05-19T11:26:45.538Z,2.33
2023-05-19T11:29:12.481Z,2.10
2023-05-19T11:31:39.197Z,2.60
2023-05-19T11:34:07.444Z,3.10
2023-05-19T11:36:36.852Z,2.17
2023-05-19T11:39:04.447Z,2.30
2023-05-19T11:41:32.319Z,2.47
2023-05-19T11:43:58.947Z,2.33
2023-05-19T11:46:25.522Z,2.70
2023-05-19T11:48:54.095Z,2.60
2023-05-19T11:51:21.578Z,2.37
2023-05-19T11:53:49.875Z,2.20
2023-05-19T11:56:16.319Z,2.63
2023-05-19T11:58:42.833Z,2.63
2023-05-19T12:01:10.196Z,2.40
2023-05-19T12:03:37.246Z,2.00
2023-05-19T12:06:05.746Z,2.80
2023-05-19T12:08:32.564Z,2.43
2023-05-19T12:10:59.394Z,2.20
2023-05-19T12:13:26.391Z,2.60
2023-05-19T12:15:53.498Z,2.40
2023-05-19T12:18:20.397Z,2.60
2023-05-19T12:20:47.100Z,2.67
2023-05-19T12:23:14.502Z,2.40
2023-05-19T12:25:41.123Z,2.30
2023-05-19T12:28:07.767Z,2.20
2023-05-19T12:30:35.124Z,2.30
2023-05-19T12:33:02.921Z,2.80
2023-05-19T12:35:33.384Z,2.37
2023-05-19T12:38:09.237Z,2.93
2023-05-19T12:40:37.107Z,2.40
2023-05-19T12:43:05.702Z,2.07
2023-05-19T12:45:36.161Z,2.20
2023-05-19T12:48:05.595Z,2.23
2023-05-19T12:50:33.989Z,2.53
2023-05-19T12:53:00.849Z,2.73
2023-05-19T12:55:27.356Z,2.37
2023-05-19T12:57:58.185Z,2.23
2023-05-19T13:00:28.135Z,1.90
2023-05-19T13:03:06.069Z,2.47
2023-05-19T13:05:36.800Z,2.10
2023-05-19T13:08:12.012Z,2.20
2023-05-19T13:10:40.106Z,2.43
2023-05-19T13:13:07.842Z,2.20
2023-05-19T13:15:40.097Z,2.60
2023-05-19T13:18:09.126Z,2.50
2023-05-19T13:20:37.423Z,2.50
2023-05-19T13:23:04.888Z,1.93
2023-05-19T13:25:33.912Z,1.90
2023-05-19T13:28:05.971Z,2.80
2023-05-19T13:30:34.066Z,2.50
2023-05-19T13:33:01.198Z,2.27
2023-05-19T13:35:28.064Z,1.90
2023-05-19T13:37:54.781Z,2.23
2023-05-19T13:40:21.369Z,2.40
2023-05-19T13:42:48.156Z,2.93
2023-05-19T13:45:14.699Z,2.03
2023-05-19T13:47:41.597Z,2.30
2023-05-19T13:50:08.339Z,2.20
2023-05-19T13:52:34.917Z,1.87
2023-05-19T13:55:01.538Z,2.30
2023-05-19T13:57:28.236Z,2.83
2023-05-19T14:00:02.430Z,2.53
2023-05-19T14:02:38.588Z,2.27
2023-05-19T14:05:06.925Z,2.40
2023-05-19T14:07:34.987Z,2.00
2023-05-19T14:10:02.703Z,2.20
2023-05-19T14:12:38.020Z,1.90
2023-05-19T14:15:11.469Z,2.50
2023-05-19T14:17:38.470Z,2.40
2023-05-19T14:20:05.628Z,2.10
2023-05-19T14:22:32.436Z,2.30
2023-05-19T14:25:00.389Z,2.00
2023-05-19T14:27:27.040Z,2.60
2023-05-19T14:29:53.506Z,2.53
2023-05-19T14:32:20.531Z,2.30
2023-05-19T14:34:47.139Z,2.20
2023-05-19T14:37:13.659Z,1.93
2023-05-19T14:39:40.236Z,1.93
2023-05-19T14:42:06.739Z,2.30
2023-05-19T14:44:33.258Z,2.10
2023-05-19T14:47:01.274Z,2.60
2023-05-19T14:49:27.739Z,2.67
2023-05-19T14:51:54.432Z,2.07
2023-05-19T14:54:20.910Z,2.10
2023-05-19T14:56:47.627Z,1.93
2023-05-19T14:59:14.221Z,2.13
2023-05-19T15:01:40.997Z,1.87
2023-05-19T15:04:07.646Z,1.90
2023-05-19T15:06:34.169Z,2.00
2023-05-19T15:09:00.651Z,2.23
2023-05-19T15:11:27.111Z,2.40
2023-05-19T15:13:53.597Z,2.20
2023-05-19T15:16:20.056Z,1.70
2023-05-19T15:18:46.684Z,2.10
2023-05-19T15:21:13.296Z,2.47
2023-05-19T15:23:39.845Z,2.20
2023-05-19T15:26:06.867Z,2.10
2023-05-19T15:28:34.154Z,2.43
2023-05-19T15:31:00.929Z,1.83
2023-05-19T15:33:27.497Z,1.80
2023-05-19T15:35:54.253Z,2.00
2023-05-19T15:38:20.928Z,2.27
2023-05-19T15:40:47.523Z,1.83
2023-05-19T15:43:14.515Z,2.33
2023-05-19T15:46:35.815Z,2.40
2023-05-19T15:49:02.453Z,2.17
2023-05-19T15:51:29.022Z,2.23
2023-05-19T15:53:55.658Z,1.83
2023-05-19T15:56:22.487Z,2.20
2023-05-19T15:58:49.793Z,2.33
2023-05-19T16:01:16.760Z,2.70
2023-05-19T16:03:44.388Z,2.30
2023-05-19T16:06:11.179Z,2.00
2023-05-19T16:08:38.005Z,2.70
2023-05-19T16:11:04.842Z,1.90
2023-05-19T16:13:33.594Z,2.20
2023-05-19T16:16:00.241Z,2.50
2023-05-19T16:18:27.686Z,2.37
2023-05-19T16:20:54.455Z,2.03
2023-05-19T16:23:21.101Z,2.20
2023-05-19T16:25:48.478Z,2.40
2023-05-19T16:28:15.027Z,2.00
2023-05-19T16:30:42.349Z,2.10
2023-05-19T16:33:09.172Z,2.37
2023-05-19T16:35:36.270Z,2.50
2023-05-19T16:38:02.908Z,2.27
2023-05-19T16:40:30.918Z,1.87
2023-05-19T16:42:57.970Z,2.03
2023-05-19T16:45:26.156Z,2.23
2023-05-19T16:47:52.748Z,2.40
2023-05-19T16:50:19.221Z,2.27
2023-05-19T16:52:46.042Z,1.80
2023-05-19T16:55:16.580Z,2.53
2023-05-19T16:57:43.078Z,2.40
2023-05-19T17:00:10.189Z,2.00
2023-05-19T17:02:36.878Z,2.20
2023-05-19T17:05:03.662Z,2.20
2023-05-19T17:07:30.355Z,2.07
2023-05-19T17:09:56.898Z,1.70
2023-05-19T17:12:23.646Z,2.20
2023-05-19T17:14:51.917Z,2.20
2023-05-19T17:17:19.476Z,2.00
2023-05-19T17:19:46.736Z,2.40
2023-05-19T17:22:13.387Z,2.00
2023-05-19T17:24:39.882Z,1.77
2023-05-19T17:27:06.624Z,1.77
2023-05-19T17:29:33.115Z,1.80
2023-05-19T17:31:59.807Z,2.00
2023-05-19T17:34:26.355Z,2.10
2023-05-19T17:36:52.865Z,2.07
2023-05-19T17:39:20.162Z,1.60
2023-05-19T17:41:46.729Z,1.77
2023-05-19T17:44:13.220Z,1.93
2023-05-19T17:46:39.913Z,2.20
2023-05-19T17:49:06.682Z,1.97
2023-05-19T17:51:33.589Z,1.90
2023-05-19T17:54:00.359Z,2.00
2023-05-19T17:56:27.261Z,2.17
2023-05-19T17:58:54.008Z,2.40
2023-05-19T18:01:23.753Z,2.30
2023-05-19T18:03:50.637Z,2.10
2023-05-19T18:06:18.357Z,1.80
2023-05-19T18:08:51.233Z,1.97
2023-05-19T18:11:18.406Z,2.70
2023-05-19T18:13:44.924Z,2.30
2023-05-19T18:16:12.284Z,1.97
2023-05-19T18:18:41.137Z,2.10
2023-05-19T18:21:07.957Z,1.97
2023-05-19T18:23:34.443Z,1.90
2023-05-19T18:26:01.073Z,2.03
2023-05-19T18:28:29.612Z,1.87
2023-05-19T18:31:00.923Z,1.70
2023-05-19T18:33:28.745Z,1.70
2023-05-19T18:35:58.449Z,1.90
2023-05-19T18:38:24.979Z,2.10
2023-05-19T18:40:51.822Z,1.70
2023-05-19T18:43:19.007Z,1.70
2023-05-19T18:45:48.553Z,1.80
2023-05-19T18:48:15.647Z,2.40
2023-05-19T18:50:44.468Z,1.73
2023-05-19T18:53:11.913Z,2.00
2023-05-19T18:55:38.639Z,1.70
2023-05-19T18:58:06.095Z,1.80
2023-05-19T19:00:33.240Z,1.40
2023-05-19T19:02:59.951Z,1.50
2023-05-19T19:05:26.689Z,1.70
2023-05-19T19:07:53.286Z,1.90
2023-05-19T19:10:19.913Z,1.80
2023-05-19T19:12:46.581Z,2.00
2023-05-19T19:15:13.097Z,1.97
2023-05-19T19:17:42.559Z,1.60
2023-05-19T19:20:09.792Z,1.87
2023-05-19T19:22:36.399Z,1.70
2023-05-19T19:25:03.201Z,1.37
2023-05-19T19:27:31.240Z,1.73
2023-05-19T19:29:58.756Z,1.60
2023-05-19T19:32:25.634Z,1.73
2023-05-19T19:34:53.303Z,1.73
2023-05-19T19:37:19.775Z,2.13
2023-05-19T19:39:46.701Z,1.93
2023-05-19T19:42:13.203Z,2.17
2023-05-19T19:44:39.762Z,1.70
2023-05-19T19:47:06.428Z,1.87
2023-05-19T19:49:33.558Z,1.73
2023-05-19T19:52:00.185Z,2.17
2023-05-19T19:54:27.096Z,1.83
2023-05-19T19:56:53.548Z,1.87
2023-05-19T19:59:20.233Z,1.77
2023-05-19T20:01:46.843Z,1.80
2023-05-19T20:04:13.593Z,1.80
2023-05-19T20:06:40.221Z,1.60
2023-05-19T20:09:06.890Z,1.87
2023-05-19T20:11:33.398Z,2.00
2023-05-19T20:13:59.881Z,1.73
2023-05-19T20:16:26.628Z,1.50
2023-05-19T20:18:53.167Z,1.57
2023-05-19T20:21:19.721Z,1.97
2023-05-19T20:23:46.264Z,1.87
2023-05-19T20:26:13.645Z,1.90
2023-05-19T20:28:40.587Z,1.47
2023-05-19T20:31:07.476Z,1.90
2023-05-19T20:33:34.047Z,1.80
2023-05-19T20:36:00.601Z,1.93
2023-05-19T20:38:27.089Z,1.90
2023-05-19T20:40:54.368Z,1.93
2023-05-19T20:43:21.183Z,1.67
2023-05-19T20:45:47.870Z,1.80
2023-05-19T20:48:15.802Z,1.80
2023-05-19T20:50:42.551Z,1.87
2023-05-19T20:53:09.170Z,1.70
2023-05-19T20:55:38.407Z,1.50
2023-05-19T20:58:04.966Z,1.87
2023-05-19T21:00:31.876Z,1.57
2023-05-19T21:02:58.733Z,1.70
2023-05-19T21:05:25.670Z,1.80
2023-05-19T21:07:52.159Z,1.60
2023-05-19T21:10:18.780Z,2.03
2023-05-19T21:12:46.272Z,3.20
2023-05-19T21:15:13.514Z,2.60
2023-05-19T21:17:40.099Z,3.37
2023-05-19T21:20:07.293Z,3.60
2023-05-19T21:22:35.602Z,3.07
2023-05-19T21:25:02.169Z,2.80
2023-05-19T21:27:28.629Z,1.80
2023-05-19T21:29:55.471Z,1.97
2023-05-19T21:32:21.953Z,1.60
2023-05-19T21:34:48.828Z,2.10
2023-05-19T21:37:17.179Z,1.80
2023-05-19T21:39:44.372Z,1.90
2023-05-19T21:42:10.857Z,1.97
2023-05-19T21:44:37.490Z,1.53
2023-05-19T21:47:04.018Z,2.00
2023-05-19T21:49:31.248Z,2.00
2023-05-19T21:51:57.839Z,1.67
2023-05-19T21:54:24.492Z,2.10
2023-05-19T21:56:51.106Z,1.80
2023-05-19T21:59:17.677Z,2.10
2023-05-19T22:01:44.245Z,1.80
2023-05-19T22:04:11.414Z,1.47
2023-05-19T22:06:38.015Z,1.50
2023-05-19T22:09:04.625Z,1.70
2023-05-19T22:11:31.354Z,1.60
2023-05-19T22:13:58.044Z,1.90
2023-05-19T22:16:24.717Z,2.23
2023-05-19T22:18:51.711Z,1.57
2023-05-19T22:21:18.591Z,1.60
2023-05-19T22:23:45.532Z,1.80
2023-05-19T22:26:11.993Z,1.80
2023-05-19T22:28:38.603Z,2.10
2023-05-19T22:31:05.158Z,1.97
2023-05-19T22:33:31.851Z,1.80
2023-05-19T22:35:58.360Z,2.10
2023-05-19T22:38:25.031Z,1.63
2023-05-19T22:40:51.497Z,1.60
2023-05-19T22:43:18.216Z,1.80
2023-05-19T22:45:44.791Z,1.60
2023-05-19T22:48:11.673Z,1.73
2023-05-19T22:50:38.387Z,1.77
2023-05-19T22:53:05.034Z,1.53
2023-05-19T22:55:32.144Z,1.70
2023-05-19T22:57:59.017Z,1.97
2023-05-19T23:00:25.581Z,1.70
2023-05-19T23:02:52.321Z,1.73
2023-05-19T23:05:18.897Z,1.73
2023-05-19T23:07:45.536Z,1.80
2023-05-19T23:10:12.024Z,1.60
2023-05-19T23:12:39.985Z,1.90
2023-05-19T23:15:07.905Z,1.63
2023-05-19T23:17:34.680Z,2.30
2023-05-19T23:20:01.379Z,1.90
2023-05-19T23:22:28.227Z,1.67
2023-05-19T23:24:54.819Z,1.80
2023-05-19T23:27:21.562Z,1.50
2023-05-19T23:29:49.050Z,1.63
2023-05-19T23:32:15.980Z,1.23
2023-05-19T23:34:42.470Z,1.73
2023-05-19T23:37:09.244Z,1.90
2023-05-19T23:39:38.101Z,1.77
2023-05-19T23:42:05.675Z,1.80
2023-05-19T23:44:32.159Z,1.67
2023-05-19T23:46:58.913Z,1.47
2023-05-19T23:49:25.579Z,1.80
2023-05-19T23:51:52.521Z,1.70
2023-05-19T23:54:19.004Z,1.80
2023-05-19T23:56:46.284Z,1.57
2023-05-19T23:59:12.778Z,1.60
